createdAt,value
2023-02-05T00:00:38.485Z,3.60
2023-02-05T00:01:38.491Z,3.90
2023-02-05T00:02:38.462Z,3.80
2023-02-05T00:03:38.490Z,4.30
2023-02-05T00:04:38.483Z,4.10
2023-02-05T00:05:38.452Z,3.80
2023-02-05T00:06:38.421Z,3.80
2023-02-05T00:07:38.393Z,3.40
2023-02-05T00:08:38.375Z,3.40
2023-02-05T00:09:38.362Z,3.70
2023-02-05T00:10:38.394Z,3.60
2023-02-05T00:11:38.347Z,3.30
2023-02-05T00:12:38.322Z,3.60
2023-02-05T00:13:38.343Z,3.90
2023-02-05T00:14:38.303Z,3.90
2023-02-05T00:15:38.302Z,4.70
2023-02-05T00:16:38.325Z,4.40
2023-02-05T00:17:38.286Z,4.40
2023-02-05T00:18:38.267Z,4.10
2023-02-05T00:19:38.252Z,4.40
2023-02-05T00:20:38.231Z,4.20
2023-02-05T00:21:38.235Z,4.30
2023-02-05T00:22:38.254Z,4.90
2023-02-05T00:23:38.216Z,4.40
2023-02-05T00:24:38.201Z,4.00
2023-02-05T00:25:38.189Z,4.90
2023-02-05T00:26:38.172Z,4.70
2023-02-05T00:27:38.162Z,5.00
2023-02-05T00:28:38.267Z,4.60
2023-02-05T00:29:38.223Z,5.10
2023-02-05T00:30:38.210Z,4.70
2023-02-05T00:31:38.212Z,5.30
2023-02-05T00:32:38.114Z,5.20
2023-02-05T00:33:38.095Z,4.70
2023-02-05T00:34:38.131Z,4.20
2023-02-05T00:35:38.063Z,4.80
2023-02-05T00:36:38.078Z,4.70
2023-02-05T00:37:38.074Z,4.80
2023-02-05T00:38:38.052Z,5.50
2023-02-05T00:39:38.080Z,5.00
2023-02-05T00:40:38.044Z,5.00
2023-02-05T00:41:38.003Z,4.40
2023-02-05T00:42:38.014Z,4.80
2023-02-05T00:43:37.975Z,4.80
2023-02-05T00:44:38.006Z,5.00
2023-02-05T00:45:38.017Z,4.60
2023-02-05T00:46:37.954Z,5.20
2023-02-05T00:47:37.979Z,5.10
2023-02-05T00:48:37.924Z,4.40
2023-02-05T00:49:37.918Z,4.40
2023-02-05T00:50:37.917Z,4.60
2023-02-05T00:51:37.916Z,4.50
2023-02-05T00:52:37.928Z,4.30
2023-02-05T00:53:37.883Z,4.50
2023-02-05T00:54:37.872Z,4.50
2023-02-05T00:55:37.847Z,4.50
2023-02-05T00:56:37.849Z,4.30
2023-02-05T00:57:37.835Z,4.40
2023-02-05T00:58:37.838Z,4.50
2023-02-05T00:59:37.818Z,3.80
2023-02-05T01:00:37.802Z,5.20
2023-02-05T01:01:37.838Z,4.20
2023-02-05T01:02:37.865Z,4.00
2023-02-05T01:03:37.768Z,4.20
2023-02-05T01:04:37.761Z,3.40
2023-02-05T01:05:37.749Z,3.70
2023-02-05T01:06:37.742Z,3.60
2023-02-05T01:07:37.722Z,3.30
2023-02-05T01:08:37.753Z,3.50
2023-02-05T01:09:37.726Z,3.50
2023-02-05T01:10:37.689Z,3.40
2023-02-05T01:11:37.679Z,3.30
2023-02-05T01:12:37.684Z,3.60
2023-02-05T01:13:37.651Z,3.60
2023-02-05T01:14:37.679Z,4.30
2023-02-05T01:15:40.059Z,3.60
2023-02-05T01:16:37.675Z,3.50
2023-02-05T01:17:37.710Z,3.70
2023-02-05T01:18:37.596Z,3.60
2023-02-05T01:19:37.594Z,3.60
2023-02-05T01:20:41.532Z,3.60
2023-02-05T01:21:37.583Z,4.00
2023-02-05T01:22:37.556Z,3.50
2023-02-05T01:23:37.548Z,3.40
2023-02-05T01:24:37.540Z,3.90
2023-02-05T01:25:37.548Z,3.40
2023-02-05T01:26:37.514Z,3.70
2023-02-05T01:27:37.506Z,3.90
2023-02-05T01:28:37.505Z,3.90
2023-02-05T01:29:37.552Z,3.40
2023-02-05T01:30:37.470Z,4.00
2023-02-05T01:31:37.640Z,4.30
2023-02-05T01:32:37.448Z,3.40
2023-02-05T01:33:37.447Z,3.60
2023-02-05T01:34:37.426Z,4.00
2023-02-05T01:35:37.409Z,3.50
2023-02-05T01:36:37.414Z,3.20
2023-02-05T01:37:37.404Z,3.20
2023-02-05T01:38:37.363Z,4.10
2023-02-05T01:39:37.382Z,3.50
2023-02-05T01:40:37.351Z,3.60
2023-02-05T01:41:37.337Z,3.40
2023-02-05T01:42:37.344Z,3.50
2023-02-05T01:43:37.311Z,3.40
2023-02-05T01:44:37.301Z,3.10
2023-02-05T01:45:37.297Z,3.90
2023-02-05T01:46:37.299Z,3.50
2023-02-05T01:47:37.308Z,3.50
2023-02-05T01:48:37.243Z,3.30
2023-02-05T01:49:37.250Z,3.30
2023-02-05T01:50:37.233Z,3.20
2023-02-05T01:51:37.210Z,3.20
2023-02-05T01:52:37.212Z,3.10
2023-02-05T01:53:37.223Z,3.20
2023-02-05T01:54:37.186Z,3.20
2023-02-05T01:55:37.160Z,3.30
2023-02-05T01:56:37.157Z,3.70
2023-02-05T01:57:37.149Z,3.40
2023-02-05T01:58:37.143Z,3.20
2023-02-05T01:59:37.160Z,3.30
2023-02-05T02:00:37.133Z,3.30
2023-02-05T02:01:37.154Z,3.40
2023-02-05T02:02:37.080Z,3.60
2023-02-05T02:03:37.075Z,3.90
2023-02-05T02:04:37.070Z,3.40
2023-02-05T02:05:37.099Z,3.60
2023-02-05T02:06:37.053Z,4.00
2023-02-05T02:07:37.020Z,3.80
2023-02-05T02:08:37.028Z,4.10
2023-02-05T02:09:37.020Z,4.30
2023-02-05T02:10:36.990Z,3.90
2023-02-05T02:11:37.013Z,3.40
2023-02-05T02:12:36.973Z,3.60
2023-02-05T02:13:36.954Z,4.30
2023-02-05T02:14:36.951Z,3.90
2023-02-05T02:15:36.931Z,3.60
2023-02-05T02:16:36.925Z,3.30
2023-02-05T02:17:36.932Z,3.70
2023-02-05T02:18:36.956Z,3.10
2023-02-05T02:19:36.892Z,3.00
2023-02-05T02:20:36.883Z,3.10
2023-02-05T02:21:36.874Z,3.00
2023-02-05T02:22:36.890Z,3.20
2023-02-05T02:23:36.842Z,3.10
2023-02-05T02:24:36.910Z,3.50
2023-02-05T02:25:36.839Z,3.30
2023-02-05T02:26:36.805Z,2.90
2023-02-05T02:27:36.814Z,2.90
2023-02-05T02:28:36.825Z,3.00
2023-02-05T02:29:36.791Z,3.00
2023-02-05T02:30:36.836Z,3.30
2023-02-05T02:31:36.765Z,2.90
2023-02-05T02:32:36.762Z,3.10
2023-02-05T02:33:36.727Z,3.00
2023-02-05T02:34:36.766Z,2.70
2023-02-05T02:35:36.862Z,3.10
2023-02-05T02:36:36.695Z,3.20
2023-02-05T02:37:36.685Z,3.10
2023-02-05T02:38:36.700Z,3.00
2023-02-05T02:39:36.659Z,3.50
2023-02-05T02:40:36.670Z,3.20
2023-02-05T02:41:36.624Z,2.90
2023-02-05T02:42:36.623Z,3.10
2023-02-05T02:43:36.611Z,3.20
2023-02-05T02:44:36.596Z,3.10
2023-02-05T02:45:36.589Z,3.20
2023-02-05T02:46:36.662Z,3.20
2023-02-05T02:47:36.558Z,2.70
2023-02-05T02:48:36.573Z,3.00
2023-02-05T02:49:36.545Z,3.30
2023-02-05T02:50:36.540Z,3.30
2023-02-05T02:51:36.531Z,3.40
2023-02-05T02:52:36.533Z,3.50
2023-02-05T02:53:36.492Z,3.60
2023-02-05T02:54:36.484Z,2.60
2023-02-05T02:55:36.473Z,3.30
2023-02-05T02:56:36.489Z,3.70
2023-02-05T02:57:36.499Z,3.30
2023-02-05T02:58:36.445Z,3.00
2023-02-05T02:59:36.428Z,3.60
2023-02-05T03:00:36.419Z,3.40
2023-02-05T03:01:36.403Z,3.40
2023-02-05T03:02:36.383Z,3.50
2023-02-05T03:03:36.453Z,3.50
2023-02-05T03:04:36.364Z,2.80
2023-02-05T03:05:36.556Z,3.10
2023-02-05T03:06:36.358Z,3.20
2023-02-05T03:07:36.327Z,3.40
2023-02-05T03:08:36.360Z,3.20
2023-02-05T03:09:36.297Z,2.90
2023-02-05T03:10:36.285Z,3.40
2023-02-05T03:11:36.328Z,2.90
2023-02-05T03:12:36.270Z,3.20
2023-02-05T03:13:36.267Z,3.20
2023-02-05T03:14:36.268Z,3.00
2023-02-05T03:15:36.338Z,3.20
2023-02-05T03:16:36.268Z,3.20
2023-02-05T03:17:36.211Z,3.20
2023-02-05T03:18:36.237Z,3.30
2023-02-05T03:19:36.193Z,2.90
2023-02-05T03:20:36.217Z,3.40
2023-02-05T03:21:36.167Z,3.70
2023-02-05T03:22:36.146Z,3.00
2023-02-05T03:23:36.156Z,3.40
2023-02-05T03:24:36.162Z,3.30
2023-02-05T03:25:36.434Z,3.10
2023-02-05T03:26:36.123Z,3.30
2023-02-05T03:27:36.113Z,3.70
2023-02-05T03:28:36.086Z,3.40
2023-02-05T03:29:36.095Z,3.30
2023-02-05T03:30:36.065Z,3.00
2023-02-05T03:31:36.099Z,3.50
2023-02-05T03:32:36.040Z,3.20
2023-02-05T03:33:36.027Z,3.80
2023-02-05T03:34:36.049Z,3.50
2023-02-05T03:35:36.161Z,3.60
2023-02-05T03:36:35.988Z,3.30
2023-02-05T03:37:35.997Z,3.30
2023-02-05T03:38:35.961Z,3.70
2023-02-05T03:39:35.985Z,3.10
2023-02-05T03:40:35.960Z,3.40
2023-02-05T03:41:35.958Z,3.10
2023-02-05T03:42:35.950Z,3.60
2023-02-05T03:43:35.915Z,3.50
2023-02-05T03:44:35.884Z,2.80
2023-02-05T03:45:36.157Z,3.40
2023-02-05T03:46:35.863Z,3.30
2023-02-05T03:47:35.858Z,3.00
2023-02-05T03:48:35.906Z,3.10
2023-02-05T03:49:35.830Z,3.50
2023-02-05T03:50:35.819Z,3.30
2023-02-05T03:51:35.847Z,3.00
2023-02-05T03:52:35.833Z,3.40
2023-02-05T03:53:35.778Z,3.60
2023-02-05T03:54:35.800Z,3.10
2023-02-05T03:55:36.001Z,3.50
2023-02-05T03:56:35.737Z,3.40
2023-02-05T03:57:35.728Z,3.20
2023-02-05T03:58:35.725Z,3.40
2023-02-05T03:59:35.724Z,3.30
2023-02-05T04:00:35.698Z,3.10
2023-02-05T04:01:35.684Z,3.60
2023-02-05T04:02:35.700Z,3.40
2023-02-05T04:03:35.664Z,3.30
2023-02-05T04:04:35.691Z,3.50
2023-02-05T04:05:36.067Z,3.20
2023-02-05T04:06:35.679Z,3.80
2023-02-05T04:07:35.639Z,3.50
2023-02-05T04:08:35.623Z,3.80
2023-02-05T04:09:35.590Z,3.00
2023-02-05T04:10:35.597Z,2.90
2023-02-05T04:11:35.605Z,3.60
2023-02-05T04:12:35.553Z,3.40
2023-02-05T04:13:35.559Z,3.30
2023-02-05T04:14:35.532Z,3.40
2023-02-05T04:15:35.694Z,3.20
2023-02-05T04:16:35.615Z,3.50
2023-02-05T04:17:35.519Z,3.40
2023-02-05T04:18:35.485Z,3.10
2023-02-05T04:19:35.473Z,3.20
2023-02-05T04:20:35.464Z,3.40
2023-02-05T04:21:35.461Z,3.30
2023-02-05T04:22:35.464Z,3.00
2023-02-05T04:23:35.435Z,3.50
2023-02-05T04:24:35.441Z,2.90
2023-02-05T04:25:35.688Z,3.10
2023-02-05T04:26:35.383Z,3.70
2023-02-05T04:27:35.385Z,3.10
2023-02-05T04:28:35.384Z,3.00
2023-02-05T04:29:35.355Z,2.90
2023-02-05T04:30:35.402Z,3.80
2023-02-05T04:31:35.350Z,3.30
2023-02-05T04:32:35.319Z,3.30
2023-02-05T04:33:35.328Z,3.40
2023-02-05T04:34:35.332Z,3.70
2023-02-05T04:35:35.573Z,3.20
2023-02-05T04:36:35.282Z,2.90
2023-02-05T04:37:35.289Z,3.10
2023-02-05T04:38:35.262Z,3.90
2023-02-05T04:39:35.245Z,3.50
2023-02-05T04:40:35.261Z,3.60
2023-02-05T04:41:35.220Z,4.10
2023-02-05T04:42:35.219Z,3.30
2023-02-05T04:43:35.248Z,3.20
2023-02-05T04:44:35.205Z,3.30
2023-02-05T04:45:35.597Z,3.30
2023-02-05T04:46:35.206Z,3.60
2023-02-05T04:47:35.141Z,3.40
2023-02-05T04:48:35.131Z,3.80
2023-02-05T04:49:35.165Z,3.30
2023-02-05T04:50:35.121Z,3.20
2023-02-05T04:51:35.123Z,3.30
2023-02-05T04:52:35.091Z,3.10
2023-02-05T04:53:35.158Z,3.40
2023-02-05T04:54:35.056Z,3.30
2023-02-05T04:55:35.299Z,3.60
2023-02-05T04:56:35.068Z,3.00
2023-02-05T04:57:35.045Z,3.40
2023-02-05T04:58:35.030Z,3.00
2023-02-05T04:59:35.007Z,3.10
2023-02-05T05:00:35.004Z,3.20
2023-02-05T05:01:35.057Z,3.50
2023-02-05T05:02:35.027Z,3.40
2023-02-05T05:03:34.953Z,3.20
2023-02-05T05:04:34.976Z,3.10
2023-02-05T05:05:35.114Z,3.10
2023-02-05T05:06:34.941Z,3.20
2023-02-05T05:07:34.921Z,3.10
2023-02-05T05:08:34.932Z,3.20
2023-02-05T05:09:34.892Z,3.50
2023-02-05T05:10:34.880Z,3.20
2023-02-05T05:11:34.870Z,3.30
2023-02-05T05:12:34.871Z,3.00
2023-02-05T05:13:34.847Z,3.40
2023-02-05T05:14:35.014Z,3.20
2023-02-05T05:15:35.138Z,3.40
2023-02-05T05:16:34.817Z,3.10
2023-02-05T05:17:34.817Z,3.40
2023-02-05T05:18:34.811Z,3.50
2023-02-05T05:19:34.813Z,3.20
2023-02-05T05:20:34.798Z,3.20
2023-02-05T05:21:34.755Z,3.40
2023-02-05T05:22:34.739Z,2.90
2023-02-05T05:23:34.733Z,3.30
2023-02-05T05:24:34.708Z,3.10
2023-02-05T05:25:34.999Z,3.30
2023-02-05T05:26:34.746Z,3.90
2023-02-05T05:27:34.678Z,3.50
2023-02-05T05:28:34.682Z,3.20
2023-02-05T05:29:34.662Z,3.20
2023-02-05T05:30:34.636Z,4.00
2023-02-05T05:31:34.712Z,3.40
2023-02-05T05:32:34.616Z,3.40
2023-02-05T05:33:35.555Z,3.40
2023-02-05T05:34:34.596Z,3.70
2023-02-05T05:35:34.905Z,3.50
2023-02-05T05:36:34.628Z,3.30
2023-02-05T05:37:34.578Z,3.70
2023-02-05T05:38:34.555Z,3.50
2023-02-05T05:39:34.539Z,2.80
2023-02-05T05:40:34.535Z,3.40
2023-02-05T05:41:34.520Z,3.50
2023-02-05T05:42:34.518Z,3.30
2023-02-05T05:43:34.521Z,3.40
2023-02-05T05:44:34.474Z,3.70
2023-02-05T05:45:34.747Z,3.20
2023-02-05T05:46:34.467Z,3.40
2023-02-05T05:47:34.490Z,3.20
2023-02-05T05:48:34.431Z,3.50
2023-02-05T05:49:34.430Z,3.40
2023-02-05T05:50:34.400Z,3.50
2023-02-05T05:51:34.534Z,3.20
2023-02-05T05:52:34.381Z,3.50
2023-02-05T05:53:34.390Z,3.20
2023-02-05T05:54:34.361Z,3.30
2023-02-05T05:55:34.586Z,3.10
2023-02-05T05:56:34.337Z,3.10
2023-02-05T05:57:34.328Z,3.30
2023-02-05T05:58:34.365Z,2.80
2023-02-05T05:59:34.303Z,3.30
2023-02-05T06:00:34.315Z,3.30
2023-02-05T06:01:34.271Z,3.60
2023-02-05T06:02:34.306Z,3.10
2023-02-05T06:03:34.249Z,3.10
2023-02-05T06:04:34.299Z,3.40
2023-02-05T06:05:34.635Z,3.50
2023-02-05T06:06:34.296Z,3.60
2023-02-05T06:07:34.216Z,3.30
2023-02-05T06:08:34.315Z,3.50
2023-02-05T06:09:34.199Z,3.30
2023-02-05T06:10:34.175Z,3.20
2023-02-05T06:11:34.251Z,3.50
2023-02-05T06:12:34.148Z,3.20
2023-02-05T06:13:34.153Z,3.30
2023-02-05T06:14:34.142Z,3.30
2023-02-05T06:15:34.494Z,3.30
2023-02-05T06:16:34.098Z,3.10
2023-02-05T06:17:34.124Z,3.20
2023-02-05T06:18:34.093Z,3.60
2023-02-05T06:19:34.046Z,3.20
2023-02-05T06:20:34.044Z,3.40
2023-02-05T06:21:34.037Z,3.60
2023-02-05T06:22:34.117Z,3.60
2023-02-05T06:23:34.034Z,3.10
2023-02-05T06:24:34.024Z,3.30
2023-02-05T06:25:34.332Z,3.50
2023-02-05T06:26:33.974Z,3.10
2023-02-05T06:27:33.961Z,3.70
2023-02-05T06:28:33.988Z,3.80
2023-02-05T06:29:33.973Z,3.20
2023-02-05T06:30:33.926Z,4.00
2023-02-05T06:31:33.981Z,3.50
2023-02-05T06:32:33.898Z,3.80
2023-02-05T06:33:33.967Z,3.40
2023-02-05T06:34:33.906Z,3.20
2023-02-05T06:35:34.315Z,3.60
2023-02-05T06:36:33.849Z,3.60
2023-02-05T06:37:46.767Z,4.20
2023-02-05T06:38:34.830Z,3.80
2023-02-05T06:39:33.833Z,3.90
2023-02-05T06:40:33.880Z,3.70
2023-02-05T06:41:33.802Z,3.90
2023-02-05T06:42:33.793Z,3.10
2023-02-05T06:43:33.791Z,4.20
2023-02-05T06:44:33.798Z,4.20
2023-02-05T06:45:34.020Z,3.90
2023-02-05T06:46:33.815Z,3.70
2023-02-05T06:47:33.765Z,4.00
2023-02-05T06:48:33.720Z,4.10
2023-02-05T06:49:33.781Z,4.20
2023-02-05T06:50:33.690Z,4.10
2023-02-05T06:51:33.702Z,4.70
2023-02-05T06:52:33.716Z,4.30
2023-02-05T06:53:33.721Z,4.60
2023-02-05T06:54:33.668Z,3.90
2023-02-05T06:55:34.008Z,4.20
2023-02-05T06:56:33.635Z,4.20
2023-02-05T06:57:33.651Z,4.20
2023-02-05T06:58:33.643Z,3.90
2023-02-05T06:59:33.583Z,4.50
2023-02-05T07:00:33.658Z,4.30
2023-02-05T07:01:33.589Z,4.00
2023-02-05T07:02:33.623Z,4.60
2023-02-05T07:03:33.573Z,4.60
2023-02-05T07:04:33.535Z,4.40
2023-02-05T07:05:33.909Z,4.60
2023-02-05T07:06:33.510Z,3.90
2023-02-05T07:07:33.536Z,3.70
2023-02-05T07:08:33.613Z,3.90
2023-02-05T07:09:33.507Z,4.10
2023-02-05T07:10:33.527Z,4.40
2023-02-05T07:11:33.504Z,4.10
2023-02-05T07:12:33.482Z,4.10
2023-02-05T07:13:33.461Z,4.70
2023-02-05T07:14:33.545Z,4.10
2023-02-05T07:15:33.767Z,4.30
2023-02-05T07:16:33.453Z,4.00
2023-02-05T07:17:33.433Z,4.70
2023-02-05T07:18:33.422Z,4.20
2023-02-05T07:19:33.434Z,4.30
2023-02-05T07:20:33.374Z,4.00
2023-02-05T07:21:33.363Z,4.20
2023-02-05T07:22:33.351Z,4.30
2023-02-05T07:23:33.374Z,4.50
2023-02-05T07:24:33.331Z,4.20
2023-02-05T07:25:33.645Z,4.10
2023-02-05T07:26:33.369Z,4.30
2023-02-05T07:27:33.303Z,4.20
2023-02-05T07:28:33.333Z,4.30
2023-02-05T07:29:33.297Z,4.00
2023-02-05T07:30:33.301Z,4.00
2023-02-05T07:31:33.360Z,5.00
2023-02-05T07:32:33.274Z,4.60
2023-02-05T07:33:33.281Z,4.30
2023-02-05T07:34:33.372Z,4.00
2023-02-05T07:35:33.672Z,4.30
2023-02-05T07:36:33.264Z,4.60
2023-02-05T07:37:33.266Z,4.10
2023-02-05T07:38:33.191Z,4.00
2023-02-05T07:39:33.161Z,4.10
2023-02-05T07:40:33.238Z,4.20
2023-02-05T07:41:33.172Z,4.30
2023-02-05T07:42:33.186Z,4.20
2023-02-05T07:43:33.099Z,4.60
2023-02-05T07:44:33.142Z,3.70
2023-02-05T07:45:33.417Z,4.90
2023-02-05T07:46:33.130Z,3.80
2023-02-05T07:47:33.099Z,4.70
2023-02-05T07:48:33.093Z,4.30
2023-02-05T07:49:33.183Z,4.20
2023-02-05T07:50:33.057Z,5.00
2023-02-05T07:51:33.036Z,4.60
2023-02-05T07:52:33.082Z,4.20
2023-02-05T07:53:33.092Z,4.90
2023-02-05T07:54:33.087Z,4.80
2023-02-05T07:55:33.153Z,4.50
2023-02-05T07:56:32.998Z,4.40
2023-02-05T07:57:32.982Z,4.20
2023-02-05T07:58:33.000Z,4.20
2023-02-05T07:59:32.996Z,4.20
2023-02-05T08:00:33.000Z,4.70
2023-02-05T08:01:32.957Z,3.90
2023-02-05T08:02:32.971Z,3.70
2023-02-05T08:03:32.881Z,4.10
2023-02-05T08:04:32.960Z,3.80
2023-02-05T08:05:33.046Z,4.00
2023-02-05T08:06:32.840Z,4.20
2023-02-05T08:07:32.871Z,4.00
2023-02-05T08:08:32.827Z,4.10
2023-02-05T08:09:32.816Z,3.90
2023-02-05T08:10:32.807Z,4.00
2023-02-05T08:11:32.862Z,4.00
2023-02-05T08:12:32.843Z,3.90
2023-02-05T08:13:32.781Z,4.20
2023-02-05T08:14:32.840Z,4.10
2023-02-05T08:15:33.006Z,4.10
2023-02-05T08:16:32.808Z,4.00
2023-02-05T08:17:32.755Z,3.90
2023-02-05T08:18:32.691Z,4.10
2023-02-05T08:19:32.678Z,3.90
2023-02-05T08:20:32.683Z,4.00
2023-02-05T08:21:32.663Z,4.40
2023-02-05T08:22:32.701Z,4.20
2023-02-05T08:23:32.709Z,4.00
2023-02-05T08:24:32.648Z,3.70
2023-02-05T08:25:32.836Z,4.60
2023-02-05T08:26:32.624Z,4.30
2023-02-05T08:27:32.597Z,4.30
2023-02-05T08:28:32.666Z,3.60
2023-02-05T08:29:32.592Z,4.70
2023-02-05T08:30:32.611Z,4.50
2023-02-05T08:31:32.563Z,4.40
2023-02-05T08:32:32.531Z,4.20
2023-02-05T08:33:32.593Z,4.20
2023-02-05T08:34:32.592Z,4.20
2023-02-05T08:35:33.097Z,4.20
2023-02-05T08:36:32.562Z,4.40
2023-02-05T08:37:32.531Z,4.60
2023-02-05T08:38:32.577Z,4.90
2023-02-05T08:39:32.502Z,4.60
2023-02-05T08:40:32.470Z,4.30
2023-02-05T08:41:32.444Z,4.60
2023-02-05T08:42:32.412Z,4.20
2023-02-05T08:43:32.383Z,4.30
2023-02-05T08:44:32.412Z,4.50
2023-02-05T08:45:32.797Z,4.80
2023-02-05T08:46:43.884Z,4.50
2023-02-05T08:47:33.372Z,4.50
2023-02-05T08:48:32.424Z,4.30
2023-02-05T08:49:32.364Z,4.70
2023-02-05T08:50:32.316Z,4.60
2023-02-05T08:51:32.336Z,5.20
2023-02-05T08:52:32.433Z,5.30
2023-02-05T08:53:32.342Z,5.20
2023-02-05T08:54:32.484Z,5.00
2023-02-05T08:55:32.541Z,5.00
2023-02-05T08:56:32.299Z,4.70
2023-02-05T08:57:32.301Z,5.50
2023-02-05T08:58:32.211Z,4.60
2023-02-05T08:59:32.293Z,4.40
2023-02-05T09:00:32.376Z,5.00
2023-02-05T09:01:32.253Z,5.30
2023-02-05T09:02:32.356Z,4.80
2023-02-05T09:03:32.213Z,5.30
2023-02-05T09:04:32.248Z,5.00
2023-02-05T09:05:32.329Z,5.60
2023-02-05T09:06:32.147Z,5.20
2023-02-05T09:07:32.134Z,5.70
2023-02-05T09:08:32.105Z,5.40
2023-02-05T09:09:32.165Z,5.20
2023-02-05T09:10:32.054Z,5.10
2023-02-05T09:11:32.195Z,6.20
2023-02-05T09:12:32.123Z,5.10
2023-02-05T09:13:32.224Z,5.30
2023-02-05T09:14:32.041Z,5.60
2023-02-05T09:15:32.294Z,5.60
2023-02-05T09:16:32.099Z,5.70
2023-02-05T09:17:31.984Z,6.20
2023-02-05T09:18:32.035Z,5.70
2023-02-05T09:19:32.024Z,6.20
2023-02-05T09:20:32.008Z,6.60
2023-02-05T09:21:31.984Z,6.40
2023-02-05T09:22:32.248Z,6.10
2023-02-05T09:23:31.947Z,6.00
2023-02-05T09:24:31.923Z,6.00
2023-02-05T09:25:32.050Z,5.90
2023-02-05T09:26:31.949Z,6.50
2023-02-05T09:27:31.868Z,5.80
2023-02-05T09:28:31.852Z,5.70
2023-02-05T09:29:31.838Z,5.90
2023-02-05T09:30:31.855Z,6.30
2023-02-05T09:31:31.885Z,6.40
2023-02-05T09:32:31.810Z,6.20
2023-02-05T09:33:31.782Z,6.00
2023-02-05T09:34:31.792Z,6.50
2023-02-05T09:35:31.861Z,6.60
2023-02-05T09:36:31.752Z,6.60
2023-02-05T09:37:31.785Z,6.80
2023-02-05T09:38:31.792Z,6.50
2023-02-05T09:40:18.561Z,6.50
2023-02-05T09:40:32.732Z,7.60
2023-02-05T09:41:31.711Z,7.00
2023-02-05T09:42:31.740Z,6.20
2023-02-05T09:43:31.706Z,6.70
2023-02-05T09:44:31.735Z,6.60
2023-02-05T09:45:31.789Z,7.00
2023-02-05T09:46:31.640Z,6.90
2023-02-05T09:47:31.620Z,8.10
2023-02-05T09:48:31.645Z,7.10
2023-02-05T09:49:31.609Z,7.30
2023-02-05T09:50:31.669Z,7.70
2023-02-05T09:51:31.612Z,8.40
2023-02-05T09:52:31.563Z,8.70
2023-02-05T09:53:31.555Z,7.60
2023-02-05T09:54:31.565Z,7.40
2023-02-05T09:55:31.568Z,7.40
2023-02-05T09:56:31.563Z,7.10
2023-02-05T09:57:31.505Z,6.70
2023-02-05T09:58:31.505Z,7.20
2023-02-05T09:59:31.497Z,7.50
2023-02-05T10:00:31.471Z,8.10
2023-02-05T10:01:31.488Z,7.20
2023-02-05T10:02:31.477Z,7.40
2023-02-05T10:03:31.430Z,7.60
2023-02-05T10:04:31.559Z,7.10
2023-02-05T10:05:31.409Z,7.50
2023-02-05T10:06:31.399Z,7.60
2023-02-05T10:07:31.420Z,7.80
2023-02-05T10:08:31.414Z,6.50
2023-02-05T10:09:31.369Z,7.40
2023-02-05T10:10:31.411Z,6.80
2023-02-05T10:11:31.341Z,8.10
2023-02-05T10:12:31.349Z,7.90
2023-02-05T10:13:31.348Z,7.40
2023-02-05T10:14:31.308Z,9.20
2023-02-05T10:15:31.314Z,7.30
2023-02-05T10:16:31.284Z,7.00
2023-02-05T10:17:31.281Z,10.80
2023-02-05T10:18:31.252Z,12.60
2023-02-05T10:19:31.264Z,9.70
2023-02-05T10:20:31.253Z,9.40
2023-02-05T10:21:31.237Z,10.50
2023-02-05T10:22:31.212Z,8.70
2023-02-05T10:23:31.203Z,7.20
2023-02-05T10:24:31.202Z,8.90
2023-02-05T10:25:31.205Z,10.50
2023-02-05T10:26:31.192Z,13.10
2023-02-05T10:27:31.186Z,9.30
2023-02-05T10:28:31.206Z,9.30
2023-02-05T10:29:31.134Z,10.00
2023-02-05T10:30:31.221Z,8.80
2023-02-05T10:31:31.163Z,7.90
2023-02-05T10:32:31.106Z,8.80
2023-02-05T10:33:31.099Z,10.10
2023-02-05T10:34:31.068Z,10.50
2023-02-05T10:35:31.057Z,19.20
2023-02-05T10:36:31.082Z,15.30
2023-02-05T10:37:31.857Z,11.10
2023-02-05T10:38:31.018Z,7.00
2023-02-05T10:39:31.029Z,6.80
2023-02-05T10:40:31.076Z,8.90
2023-02-05T10:41:30.986Z,12.90
2023-02-05T10:42:31.117Z,14.50
2023-02-05T10:43:30.996Z,12.20
2023-02-05T10:44:31.188Z,9.60
2023-02-05T10:45:30.954Z,9.60
2023-02-05T10:46:31.077Z,8.50
2023-02-05T10:47:30.978Z,10.10
2023-02-05T10:48:30.952Z,10.00
2023-02-05T10:49:31.016Z,14.60
2023-02-05T10:50:30.982Z,18.80
2023-02-05T10:51:30.978Z,13.00
2023-02-05T10:52:30.918Z,13.80
2023-02-05T10:53:30.908Z,11.70
2023-02-05T10:54:30.935Z,10.10
2023-02-05T10:55:30.919Z,8.40
2023-02-05T10:56:30.878Z,10.20
2023-02-05T10:57:30.882Z,9.60
2023-02-05T10:58:30.825Z,9.80
2023-02-05T10:59:30.836Z,10.00
2023-02-05T11:00:30.964Z,9.40
2023-02-05T11:01:30.908Z,8.90
2023-02-05T11:02:30.872Z,11.80
2023-02-05T11:03:30.776Z,10.90
2023-02-05T11:04:30.767Z,8.40
2023-02-05T11:05:30.808Z,7.30
2023-02-05T11:06:30.955Z,9.40
2023-02-05T11:07:30.730Z,8.30
2023-02-05T11:08:30.683Z,11.40
2023-02-05T11:09:30.668Z,10.90
2023-02-05T11:10:30.657Z,10.30
2023-02-05T11:11:30.646Z,9.00
2023-02-05T11:12:30.804Z,9.80
2023-02-05T11:13:30.624Z,14.00
2023-02-05T11:14:30.638Z,12.10
2023-02-05T11:15:30.598Z,14.70
2023-02-05T11:16:30.578Z,12.60
2023-02-05T11:17:30.578Z,13.20
2023-02-05T11:18:30.592Z,11.60
2023-02-05T11:19:30.552Z,9.50
2023-02-05T11:20:30.607Z,8.00
2023-02-05T11:21:30.536Z,7.40
2023-02-05T11:22:30.533Z,12.00
2023-02-05T11:23:30.510Z,10.00
2023-02-05T11:24:30.544Z,8.10
2023-02-05T11:25:31.501Z,8.50
2023-02-05T11:26:30.472Z,16.80
2023-02-05T11:27:30.575Z,9.00
2023-02-05T11:28:30.443Z,9.90
2023-02-05T11:29:30.744Z,9.00
2023-02-05T11:30:50.529Z,8.00
2023-02-05T11:31:31.636Z,8.60
2023-02-05T11:32:30.581Z,13.80
2023-02-05T11:33:30.591Z,13.70
2023-02-05T11:34:30.503Z,12.70
2023-02-05T11:35:30.490Z,12.30
2023-02-05T11:36:30.431Z,11.30
2023-02-05T11:37:30.430Z,11.20
2023-02-05T11:38:30.560Z,9.80
2023-02-05T11:39:30.400Z,8.90
2023-02-05T11:40:30.380Z,8.60
2023-02-05T11:41:30.424Z,8.20
2023-02-05T11:42:30.340Z,8.70
2023-02-05T11:43:30.339Z,8.80
2023-02-05T11:44:30.670Z,9.30
2023-02-05T11:45:30.441Z,8.90
2023-02-05T11:46:30.345Z,7.80
2023-02-05T11:47:30.270Z,8.30
2023-02-05T11:48:30.380Z,9.00
2023-02-05T11:49:30.293Z,8.70
2023-02-05T11:50:30.267Z,8.40
2023-02-05T11:51:30.301Z,7.60
2023-02-05T11:52:30.321Z,9.00
2023-02-05T11:53:30.265Z,8.40
2023-02-05T11:54:30.197Z,8.70
2023-02-05T11:55:30.324Z,8.50
2023-02-05T11:56:30.210Z,8.40
2023-02-05T11:57:30.170Z,9.70
2023-02-05T11:58:36.608Z,9.50
2023-02-05T11:59:31.237Z,9.30
2023-02-05T12:00:30.163Z,9.00
2023-02-05T12:01:30.110Z,8.60
2023-02-05T12:02:30.136Z,8.30
2023-02-05T12:03:30.188Z,7.90
2023-02-05T12:04:30.066Z,8.20
2023-02-05T12:05:30.116Z,7.30
2023-02-05T12:06:30.380Z,7.50
2023-02-05T12:07:30.060Z,7.70
2023-02-05T12:08:30.106Z,8.30
2023-02-05T12:09:30.027Z,7.30
2023-02-05T12:10:30.196Z,7.50
2023-02-05T12:11:30.569Z,8.30
2023-02-05T12:12:30.662Z,7.70
2023-02-05T12:13:30.020Z,9.10
2023-02-05T12:14:30.139Z,8.60
2023-02-05T12:15:30.043Z,8.40
2023-02-05T12:16:30.049Z,8.90
2023-02-05T12:17:29.968Z,8.50
2023-02-05T12:18:29.969Z,7.50
2023-02-05T12:19:30.947Z,7.60
2023-02-05T12:20:29.965Z,8.00
2023-02-05T12:21:29.967Z,8.10
2023-02-05T12:22:29.989Z,7.90
2023-02-05T12:23:29.874Z,7.20
2023-02-05T12:24:29.932Z,6.60
2023-02-05T12:25:29.871Z,6.90
2023-02-05T12:26:29.894Z,6.60
2023-02-05T12:27:29.834Z,6.80
2023-02-05T12:28:29.884Z,6.70
2023-02-05T12:29:29.809Z,6.80
2023-02-05T12:30:29.924Z,6.60
2023-02-05T12:31:29.785Z,6.90
2023-02-05T12:32:29.771Z,6.40
2023-02-05T12:33:29.817Z,7.10
2023-02-05T12:34:29.768Z,6.70
2023-02-05T12:35:29.770Z,7.40
2023-02-05T12:36:29.840Z,7.10
2023-02-05T12:37:29.738Z,6.70
2023-02-05T12:38:32.862Z,6.90
2023-02-05T12:39:29.759Z,7.20
2023-02-05T12:40:29.671Z,6.40
2023-02-05T12:41:29.708Z,7.10
2023-02-05T12:42:29.669Z,7.30
2023-02-05T12:43:29.696Z,5.90
2023-02-05T12:44:31.946Z,6.40
2023-02-05T12:45:29.665Z,6.80
2023-02-05T12:46:29.607Z,6.20
2023-02-05T12:47:29.672Z,7.00
2023-02-05T12:48:29.613Z,6.50
2023-02-05T12:49:29.631Z,7.20
2023-02-05T12:50:29.657Z,6.30
2023-02-05T12:51:29.737Z,6.40
2023-02-05T12:52:29.642Z,7.90
2023-02-05T12:53:29.532Z,12.30
2023-02-05T12:54:29.610Z,8.50
2023-02-05T12:55:29.476Z,5.90
2023-02-05T12:56:29.529Z,7.00
2023-02-05T12:57:29.472Z,6.50
2023-02-05T12:58:29.488Z,6.20
2023-02-05T12:59:29.486Z,6.20
2023-02-05T13:00:29.446Z,6.50
2023-02-05T13:01:29.557Z,6.00
2023-02-05T13:02:29.513Z,6.50
2023-02-05T13:03:29.472Z,7.80
2023-02-05T13:04:29.479Z,6.30
2023-02-05T13:05:29.540Z,6.60
2023-02-05T13:06:29.455Z,5.70
2023-02-05T13:07:29.423Z,5.90
2023-02-05T13:08:29.497Z,6.00
2023-02-05T13:09:29.411Z,6.40
2023-02-05T13:10:29.361Z,5.50
2023-02-05T13:11:29.373Z,6.30
2023-02-05T13:12:29.414Z,5.90
2023-02-05T13:13:29.272Z,5.70
2023-02-05T13:14:29.352Z,5.70
2023-02-05T13:15:29.434Z,5.20
2023-02-05T13:16:29.854Z,5.70